Time;durP1;ratioP1;P1;durP2;ratioP2;P2;SDS_P1;SDS_P2;PMS_P1;PMS_P2;Temp;Humidity;BMP_temperature;BMP_pressure;BME280_temperature;BME280_humidity;BME280_pressure;Samples;Min_cycle;Max_cycle;Signal;HPM_P1;HPM_P2
2021/09/02 00:01:32;;;;;;;;;14.75;14.50;;;;;18.42;44.78;101986.19;5059213;28;45451;-57
2021/09/02 00:03:57;;;;;;;;;16.50;15.00;;;;;18.40;44.69;101988.91;5058357;28;48062;-57
2021/09/02 00:06:22;;;;;;;;;16.75;13.00;;;;;18.37;44.78;102002.25;5058415;28;45467;-57
2021/09/02 00:08:48;;;;;;;;;14.50;11.75;;;;;18.35;44.73;101998.75;5059612;28;45375;-57
2021/09/02 00:11:13;;;;;;;;;15.50;13.75;;;;;18.33;44.77;101998.81;5059552;28;45280;-57
2021/09/02 00:13:38;;;;;;;;;22.25;16.25;;;;;18.31;44.68;101990.03;5059266;28;45987;-58
2021/09/02 00:16:04;;;;;;;;;13.50;13.25;;;;;18.27;44.63;101987.47;5059330;28;45363;-57
2021/09/02 00:18:30;;;;;;;;;13.25;11.00;;;;;18.27;44.85;101982.16;5059537;28;45311;-57
2021/09/02 00:20:56;;;;;;;;;14.00;13.00;;;;;18.26;44.84;101978.59;5059241;28;45565;-58
2021/09/02 00:23:21;;;;;;;;;16.50;14.25;;;;;18.25;45.05;101973.31;5059169;28;45158;-58
2021/09/02 00:25:46;;;;;;;;;12.00;11.75;;;;;18.23;44.95;101983.16;5059355;28;45194;-57
2021/09/02 00:28:12;;;;;;;;;16.25;13.25;;;;;18.22;44.89;101984.91;5059219;28;45255;-58
2021/09/02 00:30:37;;;;;;;;;15.25;12.75;;;;;18.17;44.99;101977.06;5059056;28;45166;-57
2021/09/02 00:33:03;;;;;;;;;14.00;14.00;;;;;18.14;45.00;101974.50;5068853;28;45513;-58
2021/09/02 00:35:28;;;;;;;;;16.75;15.00;;;;;18.14;45.01;101965.66;5081876;27;45388;-58
2021/09/02 00:37:53;;;;;;;;;14.75;14.50;;;;;18.11;45.11;101960.38;5074432;28;45286;-58
2021/09/02 00:40:19;;;;;;;;;16.50;14.25;;;;;18.09;45.08;101960.44;5067200;28;45467;-58
2021/09/02 00:42:44;;;;;;;;;17.50;15.00;;;;;18.07;45.29;101959.59;5074140;28;46089;-58
2021/09/02 00:45:10;;;;;;;;;19.50;15.50;;;;;18.07;45.14;101956.94;5062154;28;45158;-57
2021/09/02 00:47:36;;;;;;;;;15.50;14.00;;;;;18.02;45.27;101949.09;5062675;28;45431;-57
2021/09/02 00:50:02;;;;;;;;;13.25;13.25;;;;;17.99;45.33;101948.31;5073474;28;45380;-58
2021/09/02 00:52:30;;;;;;;;;15.50;15.50;;;;;17.99;45.29;101949.16;5067674;28;45424;-58
2021/09/02 00:55:02;;;;;;;;;17.25;15.50;;;;;17.97;45.45;101950.97;5068647;28;45253;-58
2021/09/02 00:57:29;;;;;;;;;15.25;13.50;;;;;17.96;45.47;101948.38;5062338;28;45374;-57
2021/09/02 01:00:00;;;;;;;;;15.75;12.00;;;;;17.92;45.66;101947.53;5061917;28;45393;-58
2021/09/02 01:02:27;;;;;;;;;14.50;12.00;;;;;17.93;45.51;101953.75;5069693;28;47005;-57
2021/09/02 01:04:54;;;;;;;;;17.00;14.75;;;;;17.90;45.53;101956.47;5065967;27;45539;-57
2021/09/02 01:07:22;;;;;;;;;14.25;14.00;;;;;17.87;45.51;101954.75;5062342;28;45264;-57
2021/09/02 01:09:48;;;;;;;;;13.00;12.50;;;;;17.83;45.71;101948.66;5056101;28;45411;-57
2021/09/02 01:12:44;;;;;;;;;16.00;13.50;;;;;17.84;45.57;101963.69;5062008;28;46151;-57
2021/09/02 01:15:15;;;;;;;;;16.25;14.75;;;;;17.81;45.75;101962.88;5049210;28;45182;-57
2021/09/02 01:17:43;;;;;;;;;18.50;16.25;;;;;17.81;45.63;101957.56;5062040;28;45258;-58
2021/09/02 01:20:11;;;;;;;;;19.50;16.50;;;;;17.79;45.59;101952.31;5061923;28;45205;-57
2021/09/02 01:22:37;;;;;;;;;15.75;14.00;;;;;17.76;45.63;101941.75;5061584;28;46255;-57
2021/09/02 01:25:07;;;;;;;;;13.00;12.50;;;;;17.75;45.78;101944.44;5062063;28;45402;-58
2021/09/02 01:27:32;;;;;;;;;16.25;14.00;;;;;17.71;45.95;101947.19;5061771;28;45185;-57
2021/09/02 01:30:00;;;;;;;;;14.50;14.50;;;;;17.70;45.81;101949.88;5061679;28;45219;-58
2021/09/02 01:32:30;;;;;;;;;13.00;11.00;;;;;17.67;45.85;101948.19;5061673;28;45421;-57
2021/09/02 01:34:57;;;;;;;;;13.75;11.25;;;;;17.64;45.92;101942.06;5062007;28;45602;-58
2021/09/02 01:37:24;;;;;;;;;18.00;16.00;;;;;17.61;45.79;101939.47;5061805;28;45407;-58
2021/09/02 01:39:50;;;;;;;;;15.75;14.25;;;;;17.60;45.95;101940.41;5061615;28;45390;-57
2021/09/02 01:42:16;;;;;;;;;16.00;14.25;;;;;17.58;46.04;101940.41;5077658;28;45329;-57
2021/09/02 01:44:42;;;;;;;;;16.25;15.75;;;;;17.57;46.03;101935.16;5081362;28;45311;-57
2021/09/02 01:47:25;;;;;;;;;21.00;17.00;;;;;17.54;46.09;101926.31;5081897;28;45537;-57
2021/09/02 01:49:52;;;;;;;;;18.50;16.75;;;;;17.51;46.18;101926.41;5081804;28;45485;-57
2021/09/02 01:52:18;;;;;;;;;17.25;15.50;;;;;17.50;46.29;101932.63;5063196;27;46955;-58
2021/09/02 01:54:45;;;;;;;;;16.00;15.25;;;;;17.47;46.10;101932.72;5061445;28;45265;-57
2021/09/02 01:57:11;;;;;;;;;15.75;13.75;;;;;17.44;46.10;101932.78;5061171;28;45401;-57
2021/09/02 01:59:36;;;;;;;;;19.50;16.00;;;;;17.44;46.32;101931.91;5061129;28;45422;-57
2021/09/02 02:02:02;;;;;;;;;14.75;14.25;;;;;17.38;46.08;101927.63;5061098;28;45505;-57
2021/09/02 02:04:27;;;;;;;;;14.50;14.00;;;;;17.40;46.14;101928.47;5061391;28;45291;-57
2021/09/02 02:06:52;;;;;;;;;18.00;16.25;;;;;17.40;46.58;101936.44;5061410;28;45300;-58
2021/09/02 02:09:18;;;;;;;;;24.50;17.00;;;;;17.38;46.66;101938.25;5061221;28;46960;-58
2021/09/02 02:11:43;;;;;;;;;16.50;14.75;;;;;17.35;46.32;101931.22;5061238;28;45340;-58
2021/09/02 02:14:08;;;;;;;;;18.50;18.50;;;;;17.34;46.46;101928.59;5061045;28;45224;-57
2021/09/02 02:16:34;;;;;;;;;12.50;12.50;;;;;17.31;46.72;101926.91;5061083;28;45304;-57
2021/09/02 02:18:59;;;;;;;;;18.25;15.75;;;;;17.31;46.42;101923.38;5061133;28;45552;-57
2021/09/02 02:21:24;;;;;;;;;17.25;15.75;;;;;17.30;46.60;101921.63;5074539;28;46793;-58
2021/09/02 02:23:50;;;;;;;;;20.75;19.50;;;;;17.28;46.57;101912.81;5060907;28;45228;-57
2021/09/02 02:26:15;;;;;;;;;20.50;18.00;;;;;17.27;46.76;101913.72;5061112;28;45352;-57
2021/09/02 02:28:40;;;;;;;;;20.50;16.25;;;;;17.22;46.40;101917.34;5060771;28;45470;-57
2021/09/02 02:31:06;;;;;;;;;19.75;17.75;;;;;17.22;46.57;101906.72;5060468;28;47099;-57
2021/09/02 02:33:31;;;;;;;;;16.25;16.00;;;;;17.21;46.61;101907.63;5060924;28;45391;-58
2021/09/02 02:35:56;;;;;;;;;19.25;15.50;;;;;17.20;46.73;101907.69;5060951;28;45516;-58
2021/09/02 02:38:22;;;;;;;;;18.25;15.75;;;;;17.18;46.77;101912.13;5062305;28;45566;-57
2021/09/02 02:40:47;;;;;;;;;18.25;16.75;;;;;17.16;46.78;101912.19;5064600;28;46169;-57
2021/09/02 02:43:14;;;;;;;;;19.50;16.50;;;;;17.15;46.75;101914.88;5080973;27;45237;-57
2021/09/02 02:45:39;;;;;;;;;18.25;16.00;;;;;17.13;46.76;101920.25;5080900;28;45278;-57
2021/09/02 02:48:05;;;;;;;;;21.50;18.00;;;;;17.10;47.04;101907.00;5080929;28;45453;-57
2021/09/02 02:50:31;;;;;;;;;19.50;16.50;;;;;17.09;46.66;101913.22;5076837;28;46141;-57
2021/09/02 02:52:56;;;;;;;;;18.50;17.00;;;;;17.06;47.04;101903.56;5060671;28;45191;-57
2021/09/02 02:55:21;;;;;;;;;19.00;17.25;;;;;17.08;47.15;101902.66;5059618;28;45255;-57
2021/09/02 02:57:47;;;;;;;;;22.25;18.25;;;;;17.06;47.13;101900.03;5066358;28;45320;-57
2021/09/02 03:00:13;;;;;;;;;19.00;15.25;;;;;17.05;46.78;101898.28;5059966;28;46264;-58
2021/09/02 03:02:38;;;;;;;;;22.75;19.25;;;;;17.03;46.86;101894.78;5060543;28;45448;-58
2021/09/02 03:05:04;;;;;;;;;20.00;18.75;;;;;16.99;47.17;101888.69;5060395;28;45176;-57
2021/09/02 03:07:33;;;;;;;;;21.75;19.25;;;;;16.98;46.79;101884.28;5060431;28;45385;-58
2021/09/02 03:09:58;;;;;;;;;21.50;19.25;;;;;16.98;46.71;101886.03;5059958;28;46188;-57
2021/09/02 03:12:23;;;;;;;;;18.00;17.00;;;;;16.95;47.20;101887.00;5060250;28;45322;-57
2021/09/02 03:14:49;;;;;;;;;21.25;18.50;;;;;16.95;46.92;101891.44;5059989;28;45477;-58
2021/09/02 03:17:14;;;;;;;;;18.00;17.50;;;;;16.93;47.07;101879.97;5060296;28;45537;-57
2021/09/02 03:19:39;;;;;;;;;19.50;17.00;;;;;16.90;47.00;101879.13;5059984;28;45969;-57
2021/09/02 03:22:05;;;;;;;;;26.25;18.75;;;;;16.89;47.11;101881.78;5059902;28;45315;-57
2021/09/02 03:24:30;;;;;;;;;24.25;22.75;;;;;16.87;47.09;101887.13;5060248;28;45520;-57
2021/09/02 03:26:55;;;;;;;;;28.00;21.50;;;;;16.85;47.16;101894.25;5060019;28;45491;-57
2021/09/02 03:29:21;;;;;;;;;23.50;21.00;;;;;16.83;47.21;101888.13;5059671;28;46262;-57
2021/09/02 03:31:46;;;;;;;;;24.75;18.25;;;;;16.81;47.26;101878.44;5060036;28;45270;-57
2021/09/02 03:34:12;;;;;;;;;20.75;17.25;;;;;16.80;47.49;101869.59;5060009;28;45160;-57
2021/09/02 03:36:37;;;;;;;;;25.75;21.25;;;;;16.78;47.22;101868.78;5060082;28;45329;-57
2021/09/02 03:39:02;;;;;;;;;22.00;18.25;;;;;16.77;47.30;101876.78;5061357;28;46132;-57
2021/09/02 03:41:28;;;;;;;;;21.75;19.25;;;;;16.75;47.32;101874.13;5069616;28;45323;-57
2021/09/02 03:43:53;;;;;;;;;25.75;18.25;;;;;16.73;47.73;101871.53;5079841;28;46416;-57
2021/09/02 03:46:18;;;;;;;;;20.75;20.00;;;;;16.71;47.61;101872.47;5080077;28;45445;-57
2021/09/02 03:48:44;;;;;;;;;27.50;25.00;;;;;16.69;47.77;101868.97;5079903;28;45223;-57
2021/09/02 03:51:09;;;;;;;;;26.00;22.50;;;;;16.67;47.38;101861.03;5070678;27;45289;-57
2021/09/02 03:53:34;;;;;;;;;25.00;21.75;;;;;16.66;47.30;101858.41;5058720;28;45442;-58
2021/09/02 03:56:00;;;;;;;;;21.50;17.75;;;;;16.63;47.83;101853.16;5059812;28;45679;-57
2021/09/02 03:58:25;;;;;;;;;25.25;21.75;;;;;16.60;47.88;101859.41;5059609;28;45631;-57
2021/09/02 04:00:50;;;;;;;;;21.50;17.25;;;;;16.56;47.79;101853.31;5059409;28;45335;-58
2021/09/02 04:03:16;;;;;;;;;24.75;20.50;;;;;16.58;47.75;101862.09;5058990;28;45294;-57
2021/09/02 04:05:41;;;;;;;;;29.00;22.75;;;;;16.57;47.61;101870.97;5074611;28;45550;-57
2021/09/02 04:08:06;;;;;;;;;26.00;22.75;;;;;16.56;48.14;101871.91;5075291;27;45353;-58
2021/09/02 04:10:31;;;;;;;;;24.00;23.00;;;;;16.55;47.78;101877.22;5069178;28;45239;-58
2021/09/02 04:12:57;;;;;;;;;28.00;21.50;;;;;16.53;47.96;101879.91;5065834;28;45899;-58
2021/09/02 04:15:23;;;;;;;;;22.25;18.25;;;;;16.51;48.09;101879.06;5062663;28;45439;-58
2021/09/02 04:17:48;;;;;;;;;28.75;22.50;;;;;16.52;47.84;101877.28;5062682;28;45474;-58
2021/09/02 04:20:14;;;;;;;;;24.50;20.25;;;;;16.50;47.60;101884.41;5062662;28;45457;-57
2021/09/02 04:22:39;;;;;;;;;26.00;23.75;;;;;16.38;47.95;101862.53;5062611;28;45327;-57
2021/09/02 04:25:05;;;;;;;;;22.00;19.25;;;;;16.48;47.99;101876.47;5062767;28;45399;-58
2021/09/02 04:27:30;;;;;;;;;22.00;22.00;;;;;16.46;48.06;101872.13;5062247;28;46053;-57
2021/09/02 04:29:56;;;;;;;;;25.75;23.50;;;;;16.45;47.97;101868.56;5062503;28;45397;-57
2021/09/02 04:32:21;;;;;;;;;25.75;24.75;;;;;16.44;47.75;101866.84;5062652;28;45281;-57
2021/09/02 04:34:46;;;;;;;;;27.75;23.00;;;;;16.44;47.81;101871.25;5062639;28;45323;-58
2021/09/02 04:37:12;;;;;;;;;22.25;19.75;;;;;16.40;48.17;101859.84;5062148;28;46010;-57
2021/09/02 04:39:37;;;;;;;;;23.25;21.00;;;;;16.40;48.08;101865.16;5062624;28;45208;-57
2021/09/02 04:42:03;;;;;;;;;25.00;21.00;;;;;16.35;47.95;101856.41;5077046;28;45172;-57
2021/09/02 04:44:28;;;;;;;;;21.25;19.75;;;;;16.35;48.36;101865.25;5082924;28;45264;-58
2021/09/02 04:46:53;;;;;;;;;32.50;25.25;;;;;16.34;48.15;101867.91;5082712;28;46130;-57
2021/09/02 04:49:19;;;;;;;;;27.00;23.00;;;;;16.35;48.06;101875.88;5082911;28;45301;-57
2021/09/02 04:51:44;;;;;;;;;25.25;22.25;;;;;16.32;48.39;101873.25;5068540;28;45457;-57
2021/09/02 04:54:09;;;;;;;;;26.75;23.50;;;;;16.31;48.63;101871.50;5061231;28;45245;-57
2021/09/02 04:56:35;;;;;;;;;29.25;26.25;;;;;16.29;47.97;101869.78;5062460;28;46178;-57
2021/09/02 04:59:00;;;;;;;;;47.25;35.50;;;;;16.28;48.28;101874.25;5068295;28;45383;-57
2021/09/02 05:01:25;;;;;;;;;27.50;26.50;;;;;16.26;48.08;101868.06;5068614;28;45272;-57
2021/09/02 05:03:51;;;;;;;;;31.75;27.25;;;;;16.25;48.33;101872.53;5062394;28;45462;-57
2021/09/02 05:06:16;;;;;;;;;32.75;27.50;;;;;16.23;48.31;101871.66;5062291;28;45386;-57
2021/09/02 05:08:42;;;;;;;;;35.50;26.25;;;;;16.22;48.51;101861.97;5062266;28;45302;-57
2021/09/02 05:11:07;;;;;;;;;31.25;29.25;;;;;16.18;48.51;101862.94;5062385;28;45294;-57
2021/09/02 05:13:32;;;;;;;;;39.25;31.50;;;;;16.19;48.72;101856.72;5062079;28;45287;-57
2021/09/02 05:15:58;;;;;;;;;36.50;27.75;;;;;16.18;48.48;101862.94;5061827;28;46046;-57
2021/09/02 05:18:23;;;;;;;;;31.75;28.00;;;;;16.17;48.29;101860.31;5061364;28;45395;-57
2021/09/02 05:20:48;;;;;;;;;39.50;32.50;;;;;16.13;48.35;101854.19;5062100;28;45439;-57
2021/09/02 05:23:14;;;;;;;;;36.75;31.50;;;;;16.14;48.63;101865.66;5061878;28;45334;-57
2021/09/02 05:25:39;;;;;;;;;47.00;36.25;;;;;16.12;48.99;101868.34;5061959;28;45351;-57
2021/09/02 05:28:04;;;;;;;;;46.00;34.25;;;;;16.11;48.40;101866.59;5061727;28;45257;-57
2021/09/02 05:30:30;;;;;;;;;43.00;34.00;;;;;16.10;48.65;101862.22;5073543;28;45355;-57
2021/09/02 05:32:55;;;;;;;;;42.00;33.50;;;;;16.09;48.35;101861.34;5062280;28;45418;-57
2021/09/02 05:35:20;;;;;;;;;38.75;34.00;;;;;16.05;48.83;101846.41;5061622;28;46094;-57
2021/09/02 05:37:46;;;;;;;;;44.75;36.50;;;;;16.07;48.53;101849.00;5076447;28;45232;-57
2021/09/02 05:40:12;;;;;;;;;38.00;33.00;;;;;16.07;48.40;101851.66;5061670;28;45208;-57
2021/09/02 05:42:37;;;;;;;;;49.50;36.50;;;;;16.06;48.80;101849.91;5080830;28;45546;-57
2021/09/02 05:45:04;;;;;;;;;48.00;36.50;;;;;16.06;48.59;101855.22;5080576;28;46160;-57
2021/09/02 05:47:29;;;;;;;;;44.00;34.50;;;;;16.04;48.98;101860.56;5081929;28;45215;-57
2021/09/02 05:49:55;;;;;;;;;39.75;33.00;;;;;16.03;48.61;101869.41;5081968;28;45207;-57
2021/09/02 05:52:20;;;;;;;;;40.00;33.75;;;;;16.03;48.97;101866.75;5062202;27;45133;-58
2021/09/02 05:54:48;;;;;;;;;41.50;32.25;;;;;16.01;49.05;101865.03;5061368;28;45334;-57
2021/09/02 05:57:13;;;;;;;;;32.50;29.75;;;;;16.02;49.12;101869.44;5061209;28;45281;-57
2021/09/02 05:59:38;;;;;;;;;29.00;26.25;;;;;16.01;49.22;101865.03;5061319;28;45484;-58
2021/09/02 06:02:04;;;;;;;;;28.75;26.50;;;;;16.03;48.92;101865.91;5061156;28;45302;-58
2021/09/02 06:04:29;;;;;;;;;32.00;28.50;;;;;16.02;48.99;101866.78;5061330;28;45626;-59
2021/09/02 06:06:54;;;;;;;;;28.50;28.00;;;;;16.01;49.29;101870.34;5061159;28;45372;-59
2021/09/02 06:09:20;;;;;;;;;32.00;26.75;;;;;16.04;49.27;101875.59;5061582;28;45312;-60
2021/09/02 06:11:45;;;;;;;;;35.25;30.00;;;;;16.04;49.56;101876.47;5061198;28;45469;-60
2021/09/02 06:14:10;;;;;;;;;30.75;26.75;;;;;16.08;49.52;101877.28;5061127;28;45957;-60
2021/09/02 06:16:36;;;;;;;;;31.00;28.50;;;;;16.10;49.41;101878.13;5060857;28;45154;-59
2021/09/02 06:19:01;;;;;;;;;31.00;27.50;;;;;16.12;49.57;101878.09;5059989;28;45231;-59
2021/09/02 06:21:27;;;;;;;;;26.75;25.00;;;;;16.13;49.25;101877.19;5060720;28;45418;-60
2021/09/02 06:23:52;;;;;;;;;33.75;29.50;;;;;16.15;49.52;101876.25;5060835;28;45422;-59
2021/09/02 06:26:18;;;;;;;;;31.75;28.25;;;;;16.16;49.75;101875.38;5060848;28;45208;-57
2021/09/02 06:28:43;;;;;;;;;35.25;29.00;;;;;16.21;49.80;101885.88;5061031;28;45218;-58
2021/09/02 06:31:09;;;;;;;;;28.00;23.00;;;;;16.22;49.69;101877.00;5059408;28;45462;-60
2021/09/02 06:33:35;;;;;;;;;28.00;27.00;;;;;16.26;49.90;101889.28;5060805;28;46126;-57
2021/09/02 06:36:00;;;;;;;;;32.25;29.75;;;;;16.29;49.69;101885.72;5060778;28;45413;-58
2021/09/02 06:38:26;;;;;;;;;28.50;26.25;;;;;16.32;49.71;101885.66;5060833;28;45417;-59
2021/09/02 06:40:51;;;;;;;;;28.00;25.00;;;;;16.33;49.84;101882.13;5060618;28;45451;-59
2021/09/02 06:43:16;;;;;;;;;30.75;24.25;;;;;16.37;49.93;101882.00;5070624;28;47055;-57
2021/09/02 06:45:42;;;;;;;;;31.25;29.25;;;;;16.40;49.86;101876.66;5076006;28;45347;-58
2021/09/02 06:48:07;;;;;;;;;32.25;28.50;;;;;16.42;49.73;101877.47;5060853;28;45342;-57
2021/09/02 06:50:32;;;;;;;;;31.50;26.50;;;;;16.47;49.84;101882.69;5072160;28;45309;-58
2021/09/02 06:52:58;;;;;;;;;31.75;26.00;;;;;16.51;49.59;101883.50;5060547;28;45277;-58
2021/09/02 06:55:23;;;;;;;;;31.00;29.50;;;;;16.54;49.67;101886.97;5060507;28;45394;-57
2021/09/02 06:57:48;;;;;;;;;33.50;26.75;;;;;16.56;49.40;101884.28;5059320;28;45242;-58
2021/09/02 07:00:14;;;;;;;;;25.25;22.75;;;;;16.60;49.81;101885.09;5060076;28;45286;-58
2021/09/02 07:02:39;;;;;;;;;29.75;27.50;;;;;16.62;49.35;101885.94;5060409;28;46231;-58
2021/09/02 07:05:06;;;;;;;;;29.50;24.00;;;;;16.66;49.76;101885.81;5077160;28;45423;-58
2021/09/02 07:07:32;;;;;;;;;34.50;28.00;;;;;16.68;49.41;101878.72;5069609;28;45244;-58
2021/09/02 07:09:57;;;;;;;;;37.00;29.25;;;;;16.73;49.48;101878.63;5060157;28;45247;-58
2021/09/02 07:12:23;;;;;;;;;32.00;25.25;;;;;16.76;49.68;101877.69;5060104;28;46294;-59
2021/09/02 07:14:48;;;;;;;;;30.75;24.75;;;;;16.80;49.41;101874.03;5060001;28;45364;-58
2021/09/02 07:17:13;;;;;;;;;31.50;22.50;;;;;16.82;49.22;101877.53;5060407;28;45296;-58
2021/09/02 07:19:39;;;;;;;;;30.25;26.75;;;;;16.84;49.20;101887.22;5060159;28;45231;-57
2021/09/02 07:22:04;;;;;;;;;30.50;25.00;;;;;16.88;49.27;101888.88;5059746;28;46044;-57
2021/09/02 07:24:29;;;;;;;;;27.25;24.25;;;;;16.92;49.33;101900.34;5060041;28;45250;-58
2021/09/02 07:26:55;;;;;;;;;32.25;26.75;;;;;16.96;49.54;101896.72;5060216;28;45336;-59
2021/09/02 07:29:20;;;;;;;;;28.75;24.50;;;;;17.00;49.35;101902.81;5058483;28;46028;-58
2021/09/02 07:31:46;;;;;;;;;32.75;27.75;;;;;17.02;49.57;101895.72;5060097;28;45477;-59
2021/09/02 07:34:11;;;;;;;;;25.00;23.50;;;;;17.08;49.59;101892.91;5059896;28;45395;-58
2021/09/02 07:36:38;;;;;;;;;37.00;30.00;;;;;17.12;49.24;101901.66;5060045;28;45828;-59
2021/09/02 07:39:04;;;;;;;;;33.00;28.50;;;;;17.15;49.59;101902.47;5059531;28;45496;-58
2021/09/02 07:41:30;;;;;;;;;32.00;28.50;;;;;17.20;49.12;101897.91;5069263;28;45377;-58
2021/09/02 07:43:55;;;;;;;;;26.50;24.00;;;;;17.22;49.55;101893.44;5079872;28;45386;-58
2021/09/02 07:46:21;;;;;;;;;29.75;25.00;;;;;17.28;49.46;101896.88;5080180;28;45240;-59
2021/09/02 07:48:46;;;;;;;;;26.50;23.25;;;;;17.32;49.49;101887.91;5079920;28;45364;-58
2021/09/02 07:51:13;;;;;;;;;26.75;23.25;;;;;17.36;49.33;101895.78;5068854;28;46150;-58
2021/09/02 07:53:39;;;;;;;;;22.00;21.25;;;;;17.41;49.32;101887.69;5076488;28;45328;-58
2021/09/02 07:56:04;;;;;;;;;28.25;26.00;;;;;17.45;49.61;101878.72;5080194;28;45282;-58
2021/09/02 07:58:29;;;;;;;;;20.50;20.50;;;;;17.50;49.53;101876.84;5078524;28;45194;-58
2021/09/02 08:00:55;;;;;;;;;26.25;24.00;;;;;17.49;49.50;101867.09;5068023;28;47123;-58
2021/09/02 08:03:20;;;;;;;;;33.00;26.00;;;;;17.59;49.37;101889.00;5076314;28;45314;-59
2021/09/02 08:05:46;;;;;;;;;26.50;23.75;;;;;17.65;49.47;101890.66;5080057;28;45313;-58
2021/09/02 08:08:16;;;;;;;;;27.00;25.75;;;;;17.70;49.36;101883.44;5079717;28;45319;-58
2021/09/02 08:10:42;;;;;;;;;28.25;22.75;;;;;17.74;49.25;101884.22;5079767;28;47078;-59
2021/09/02 08:13:07;;;;;;;;;25.50;23.00;;;;;17.78;49.35;101881.44;5078105;28;45308;-58
2021/09/02 08:15:32;;;;;;;;;24.25;22.00;;;;;17.85;49.42;101890.13;5079712;28;45577;-58
2021/09/02 08:17:59;;;;;;;;;28.75;24.50;;;;;17.89;49.56;101877.63;5079644;28;45496;-58
2021/09/02 08:20:25;;;;;;;;;32.75;29.00;;;;;17.95;49.31;101869.50;5079542;28;47033;-58
2021/09/02 08:22:51;;;;;;;;;35.00;28.25;;;;;18.00;49.31;101864.97;5079232;28;45417;-58
2021/09/02 08:25:16;;;;;;;;;23.00;18.50;;;;;18.06;49.29;101867.41;5079904;28;45346;-59
2021/09/02 08:27:44;;;;;;;;;34.00;25.25;;;;;18.08;49.43;101860.28;5079330;28;45391;-59
2021/09/02 08:30:11;;;;;;;;;28.75;26.50;;;;;18.19;49.35;101870.63;5079185;28;45450;-58
2021/09/02 08:32:36;;;;;;;;;29.00;27.25;;;;;18.26;49.15;101863.34;5079320;28;45291;-59
2021/09/02 08:35:02;;;;;;;;;25.00;21.50;;;;;18.31;49.33;101861.41;5078418;28;45182;-59
2021/09/02 08:37:28;;;;;;;;;29.25;27.00;;;;;18.39;49.01;101863.84;5079086;28;45262;-59
2021/09/02 08:39:53;;;;;;;;;29.00;27.25;;;;;18.44;48.98;101859.25;5059068;28;45254;-58
2021/09/02 08:42:19;;;;;;;;;28.00;23.75;;;;;18.54;49.45;101849.22;5075711;28;45264;-58
2021/09/02 08:44:44;;;;;;;;;24.50;22.50;;;;;18.60;49.18;101849.03;5079367;28;45468;-58
2021/09/02 08:47:11;;;;;;;;;26.25;23.50;;;;;18.67;49.06;101850.59;5079375;28;45425;-58
2021/09/02 08:49:37;;;;;;;;;33.00;23.75;;;;;18.72;48.88;101843.34;5079194;28;47245;-58
2021/09/02 08:52:03;;;;;;;;;28.50;26.00;;;;;18.80;48.82;101849.31;5074365;28;45323;-58
2021/09/02 08:54:31;;;;;;;;;30.00;24.50;;;;;18.89;49.32;101847.25;5061241;28;45387;-58
2021/09/02 08:56:57;;;;;;;;;25.50;21.25;;;;;18.95;49.41;101847.97;5062256;28;45324;-59
2021/09/02 08:59:22;;;;;;;;;26.75;23.50;;;;;19.03;49.04;101847.75;5060903;28;46193;-59
2021/09/02 09:01:48;;;;;;;;;26.50;22.25;;;;;19.11;49.03;101848.34;5062148;28;45267;-59
2021/09/02 09:04:15;;;;;;;;;24.75;21.75;;;;;19.19;49.31;101840.09;5062549;28;45177;-59
2021/09/02 09:06:41;;;;;;;;;21.75;20.75;;;;;19.28;49.17;101845.16;5062031;28;45341;-59
2021/09/02 09:09:15;;;;;;;;;18.75;16.25;;;;;19.37;49.19;101840.41;5060684;28;47016;-59
2021/09/02 09:11:48;;;;;;;;;25.00;23.00;;;;;19.45;49.05;101841.88;5062161;28;45305;-59
2021/09/02 09:14:26;;;;;;;;;23.75;20.25;;;;;19.56;48.89;101843.31;5061976;28;45300;-59
2021/09/02 09:16:59;;;;;;;;;24.00;22.50;;;;;19.65;48.96;101832.34;5062177;28;45522;-59
2021/09/02 09:19:54;;;;;;;;;22.00;21.50;;;;;19.73;48.91;101829.41;5061730;28;45262;-59
2021/09/02 09:22:22;;;;;;;;;27.25;22.50;;;;;19.86;49.02;101827.19;5061711;28;45238;-59
2021/09/02 09:25:01;;;;;;;;;23.25;20.75;;;;;19.96;49.06;101825.94;5068943;28;45272;-59
2021/09/02 09:27:41;;;;;;;;;24.25;22.50;;;;;20.04;48.87;101818.53;5067156;28;45336;-60
2021/09/02 09:30:08;;;;;;;;;21.75;18.00;;;;;20.17;48.79;101818.94;5081719;28;46005;-59
2021/09/02 09:32:52;;;;;;;;;25.25;22.25;;;;;20.23;48.90;101807.19;5081849;28;45509;-59
2021/09/02 09:35:22;;;;;;;;;27.25;23.25;;;;;20.39;48.33;101811.00;5082109;28;45265;-59
2021/09/02 09:37:49;;;;;;;;;25.00;20.75;;;;;20.50;48.76;101810.56;5078920;28;45544;-59
2021/09/02 09:40:16;;;;;;;;;22.00;19.25;;;;;20.62;48.80;101806.56;5061402;28;45381;-59
2021/09/02 09:42:55;;;;;;;;;23.50;20.75;;;;;20.74;48.66;101811.44;5076656;28;45292;-60
2021/09/02 09:45:50;;;;;;;;;20.25;18.25;;;;;20.88;48.04;101804.66;5061376;28;45518;-60
2021/09/02 09:48:36;;;;;;;;;18.75;18.00;;;;;21.04;47.99;101795.09;5061657;28;45311;-61
2021/09/02 09:51:19;;;;;;;;;22.50;19.75;;;;;21.18;48.04;101802.53;5072844;28;46211;-60
2021/09/02 09:53:50;;;;;;;;;21.25;17.25;;;;;21.33;48.48;101802.81;5061385;28;45340;-60
2021/09/02 09:56:22;;;;;;;;;22.50;17.00;;;;;21.48;47.74;101801.28;5061684;28;45370;-60
2021/09/02 09:58:49;;;;;;;;;26.75;23.75;;;;;21.63;47.61;101808.66;5061193;28;45402;-60
2021/09/02 10:01:15;;;;;;;;;20.00;16.50;;;;;21.79;48.02;101799.97;5059614;28;48183;-61
2021/09/02 10:03:41;;;;;;;;;21.50;20.25;;;;;21.95;48.08;101809.03;5061077;28;45266;-59
2021/09/02 10:06:09;;;;;;;;;21.75;18.00;;;;;22.09;47.90;101792.34;5061264;28;45395;-59
2021/09/02 10:08:40;;;;;;;;;23.75;22.25;;;;;22.28;47.57;101803.06;5061099;28;45491;-59
2021/09/02 10:11:09;;;;;;;;;21.00;17.75;;;;;22.44;47.17;101795.22;5059950;28;46162;-59
2021/09/02 10:13:35;;;;;;;;;19.00;18.25;;;;;22.54;47.55;101784.91;5061004;28;45323;-59
2021/09/02 10:16:01;;;;;;;;;19.00;18.25;;;;;22.76;47.16;101786.56;5061002;28;45264;-59
2021/09/02 10:18:28;;;;;;;;;21.75;19.75;;;;;22.91;47.20;101793.84;5061124;28;45532;-59
2021/09/02 10:20:55;;;;;;;;;19.00;18.00;;;;;23.09;46.87;101792.03;5060671;28;46193;-59
2021/09/02 10:23:25;;;;;;;;;23.00;18.50;;;;;23.26;46.82;101785.84;5060936;28;45352;-60
2021/09/02 10:25:52;;;;;;;;;20.25;18.50;;;;;23.45;46.82;101775.03;5060947;28;45240;-60
2021/09/02 10:28:25;;;;;;;;;18.00;15.00;;;;;23.65;46.39;101776.66;5060873;28;45196;-59
2021/09/02 10:30:54;;;;;;;;;20.00;18.75;;;;;23.86;46.79;101773.75;5060414;28;46051;-60
2021/09/02 10:33:36;;;;;;;;;17.75;17.25;;;;;24.07;46.47;101785.19;5060970;28;45437;-59
2021/09/02 10:36:10;;;;;;;;;17.25;17.25;;;;;24.30;46.29;101772.31;5060869;28;45308;-59
2021/09/02 10:38:38;;;;;;;;;20.00;17.00;;;;;24.52;45.97;101773.81;5060744;28;45255;-60
2021/09/02 10:41:04;;;;;;;;;18.00;16.25;;;;;24.74;45.86;101773.44;5066783;28;47164;-59
2021/09/02 10:43:53;;;;;;;;;19.50;16.75;;;;;25.02;46.18;101774.50;5080912;27;45181;-60
2021/09/02 10:46:30;;;;;;;;;20.00;17.25;;;;;25.25;46.00;101768.63;5081059;28;45318;-59
2021/09/02 10:49:17;;;;;;;;;17.75;17.50;;;;;25.56;45.82;101777.56;5080800;28;45459;-59
2021/09/02 10:51:48;;;;;;;;;21.50;16.75;;;;;25.85;45.77;101780.28;5066288;28;46194;-59
2021/09/02 10:54:15;;;;;;;;;20.00;17.75;;;;;26.18;45.22;101771.03;5060432;28;45312;-60
2021/09/02 10:57:07;;;;;;;;;17.00;16.75;;;;;26.54;45.26;101782.22;5060342;28;45328;-59
2021/09/02 10:59:53;;;;;;;;;16.25;14.00;;;;;26.87;45.25;101781.84;5060185;28;45393;-59
2021/09/02 11:02:22;;;;;;;;;21.25;18.00;;;;;27.27;44.81;101778.28;5068281;28;46079;-59
2021/09/02 11:04:58;;;;;;;;;20.25;17.00;;;;;27.65;44.83;101772.06;5080439;28;45247;-59
2021/09/02 11:07:54;;;;;;;;;17.00;13.75;;;;;28.05;44.45;101776.50;5080761;28;45310;-59
2021/09/02 11:10:22;;;;;;;;;16.25;14.50;;;;;28.46;44.10;101777.13;5080551;28;45245;-59